Terminal Aerodrome Forecast
Issued by NWS Louisville, KY

Home | Current Version | Previous Version | Text Only | Print | Product List | Glossary On
Versions: 1 2 3 4 5 6 7 8 9 10 11 12 13 14 15 16 17 18 19 20 21 22 23 24 25
000
FTUS43 KLMK 210531
TAFBWG
TAF
KBWG 210531Z 2106/2206 18016G26KT P6SM SCT070 BKN150 WS020/19042KT
     FM211000 20015KT P6SM VCSH BKN025
     FM211200 21013G23KT 4SM SHRA OVC015
     FM211500 29009KT 6SM -SHRA BKN008 OVC015
     FM211700 35008KT 5SM SHRA OVC008=

USA.gov is the U.S. government's official web portal to all federal, state and local government web resources and services.